createdAt,value
2023-04-23T00:00:40.242Z,40.21
2023-04-23T00:03:10.755Z,40.44
2023-04-23T00:05:42.038Z,39.88
2023-04-23T00:08:11.386Z,40.33
2023-04-23T00:10:39.658Z,40.99
2023-04-23T00:13:08.186Z,40.47
2023-04-23T00:15:36.830Z,40.97
2023-04-23T00:18:04.868Z,41.35
2023-04-23T00:20:34.179Z,40.87
2023-04-23T00:23:03.464Z,41.04
2023-04-23T00:25:31.362Z,41.44
2023-04-23T00:27:59.177Z,41.66
2023-04-23T00:30:27.077Z,41.55
2023-04-23T00:32:55.363Z,42.25
2023-04-23T00:35:24.774Z,41.63
2023-04-23T00:37:52.628Z,41.57
2023-04-23T00:40:23.787Z,41.69
2023-04-23T00:42:53.668Z,41.74
2023-04-23T00:45:21.886Z,41.85
2023-04-23T00:47:50.602Z,41.98
2023-04-23T00:50:18.807Z,42.17
2023-04-23T00:52:46.644Z,41.59
2023-04-23T00:55:23.282Z,42.41
2023-04-23T00:57:52.731Z,42.37
2023-04-23T01:00:20.751Z,42.14
2023-04-23T01:02:50.581Z,42.60
2023-04-23T01:05:19.254Z,42.42
2023-04-23T01:07:48.770Z,42.48
2023-04-23T01:10:16.707Z,42.00
2023-04-23T01:12:44.654Z,41.96
2023-04-23T01:15:13.988Z,42.17
2023-04-23T01:17:43.236Z,43.06
2023-04-23T01:20:11.938Z,42.68
2023-04-23T01:22:41.176Z,43.87
2023-04-23T01:25:10.306Z,43.15
2023-04-23T01:27:38.789Z,43.66
2023-04-23T01:30:07.815Z,43.82
2023-04-23T01:32:36.470Z,43.70
2023-04-23T01:35:05.624Z,43.60
2023-04-23T01:37:34.326Z,43.40
2023-04-23T01:40:03.619Z,43.67
2023-04-23T01:42:31.470Z,44.43
2023-04-23T01:44:59.438Z,43.96
2023-04-23T01:47:27.615Z,45.92
2023-04-23T01:49:55.750Z,45.81
2023-04-23T01:52:23.616Z,45.33
2023-04-23T01:54:51.768Z,45.26
2023-04-23T01:57:26.589Z,45.47
2023-04-23T01:59:59.885Z,46.01
2023-04-23T02:02:27.994Z,50.41
2023-04-23T02:04:56.806Z,49.95
2023-04-23T02:07:24.702Z,52.00
2023-04-23T02:09:52.568Z,58.69
2023-04-23T02:12:21.863Z,59.54
2023-04-23T02:14:49.739Z,60.21
2023-04-23T02:17:17.622Z,62.42
2023-04-23T02:19:45.479Z,63.10
2023-04-23T02:22:13.659Z,65.21
2023-04-23T02:24:42.270Z,69.58
2023-04-23T02:27:10.877Z,66.28
2023-04-23T02:29:40.117Z,66.60
2023-04-23T02:32:08.059Z,66.83
2023-04-23T02:34:35.998Z,66.60
2023-04-23T02:37:05.234Z,69.54
2023-04-23T02:39:33.364Z,70.67
2023-04-23T02:42:01.994Z,68.00
2023-04-23T02:44:29.842Z,68.82
2023-04-23T02:46:59.117Z,72.52
2023-04-23T02:49:27.550Z,72.01
2023-04-23T02:51:55.540Z,72.99
2023-04-23T02:54:23.915Z,74.26
2023-04-23T02:56:51.827Z,74.52
2023-04-23T02:59:19.744Z,71.84
2023-04-23T03:01:47.737Z,72.96
2023-04-23T03:04:18.232Z,75.55
2023-04-23T03:06:46.166Z,75.39
2023-04-23T03:09:15.729Z,73.86
2023-04-23T03:11:43.718Z,74.16
2023-04-23T03:14:14.044Z,74.82
2023-04-23T03:16:42.027Z,73.47
2023-04-23T03:19:10.025Z,75.27
2023-04-23T03:21:39.242Z,73.24
2023-04-23T03:24:08.913Z,72.60
2023-04-23T03:26:36.782Z,72.96
2023-04-23T03:29:06.288Z,70.97
2023-04-23T03:31:34.823Z,73.04
2023-04-23T03:34:03.291Z,72.73
2023-04-23T03:36:34.732Z,71.50
2023-04-23T03:39:04.661Z,69.98
2023-04-23T03:41:45.914Z,71.21
2023-04-23T03:44:16.105Z,71.02
2023-04-23T03:46:46.292Z,72.95
2023-04-23T03:49:16.768Z,71.89
2023-04-23T03:51:45.341Z,71.17
2023-04-23T03:54:14.595Z,75.14
2023-04-23T03:56:46.460Z,72.74
2023-04-23T03:59:20.566Z,74.39
2023-04-23T04:01:50.625Z,73.99
2023-04-23T04:04:19.825Z,73.75
2023-04-23T04:06:49.762Z,75.47
2023-04-23T04:09:19.085Z,72.85
2023-04-23T04:11:47.198Z,73.29
2023-04-23T04:14:16.950Z,72.82
2023-04-23T04:16:44.859Z,75.72
2023-04-23T04:19:12.728Z,74.72
2023-04-23T04:21:40.599Z,75.47
2023-04-23T04:24:08.724Z,75.85
2023-04-23T04:26:37.974Z,76.23
2023-04-23T04:29:05.871Z,73.51
2023-04-23T04:31:33.892Z,72.87
2023-04-23T04:34:01.831Z,72.11
2023-04-23T04:36:29.700Z,72.75
2023-04-23T04:38:58.604Z,73.39
2023-04-23T04:41:27.678Z,73.10
2023-04-23T04:43:58.564Z,72.18
2023-04-23T04:46:29.050Z,71.20
2023-04-23T04:48:57.102Z,75.01
2023-04-23T04:51:24.985Z,72.43
2023-04-23T04:53:52.885Z,72.96
2023-04-23T04:56:22.185Z,72.90
2023-04-23T04:58:50.004Z,73.31
2023-04-23T05:01:20.264Z,72.01
2023-04-23T05:03:48.342Z,73.50
2023-04-23T05:06:16.438Z,73.75
2023-04-23T05:08:48.119Z,74.11
2023-04-23T05:11:16.165Z,73.77
2023-04-23T05:13:44.556Z,74.94
2023-04-23T05:16:12.836Z,74.59
2023-04-23T05:18:42.311Z,73.50
2023-04-23T05:21:10.550Z,73.67
2023-04-23T05:23:38.428Z,72.60
2023-04-23T05:26:06.365Z,72.29
2023-04-23T05:28:34.251Z,72.07
2023-04-23T05:31:02.161Z,73.10
2023-04-23T05:33:33.451Z,73.29
2023-04-23T05:36:03.029Z,73.72
2023-04-23T05:38:30.972Z,73.97
2023-04-23T05:40:59.254Z,73.47
2023-04-23T05:43:27.083Z,73.43
2023-04-23T05:45:54.939Z,72.96
2023-04-23T05:48:22.848Z,73.48
2023-04-23T05:50:50.735Z,73.47
2023-04-23T05:53:19.993Z,74.44
2023-04-23T05:55:47.828Z,72.74
2023-04-23T05:58:15.956Z,72.88
2023-04-23T06:00:43.901Z,73.61
2023-04-23T06:03:11.865Z,73.49
2023-04-23T06:05:39.850Z,73.03
2023-04-23T06:08:07.844Z,72.23
2023-04-23T06:10:37.034Z,72.85
2023-04-23T06:13:04.883Z,74.33
2023-04-23T06:15:32.748Z,74.07
2023-04-23T06:18:00.830Z,74.68
2023-04-23T06:20:28.807Z,74.74
2023-04-23T06:22:56.740Z,74.85
2023-04-23T06:25:25.226Z,73.77
2023-04-23T06:27:54.606Z,73.10
2023-04-23T06:30:26.066Z,72.58
2023-04-23T06:32:54.335Z,74.67
2023-04-23T06:35:22.389Z,72.14
2023-04-23T06:37:50.386Z,73.01
2023-04-23T06:40:18.388Z,73.56
2023-04-23T06:42:47.610Z,74.43
2023-04-23T06:45:20.982Z,73.56
2023-04-23T06:47:49.853Z,74.34
2023-04-23T06:50:17.936Z,74.84
2023-04-23T06:52:46.117Z,74.85
2023-04-23T06:55:14.057Z,74.73
2023-04-23T06:57:42.007Z,74.72
2023-04-23T07:00:11.711Z,75.39
2023-04-23T07:02:43.893Z,75.20
2023-04-23T07:05:11.778Z,75.00
2023-04-23T07:07:40.770Z,77.67
2023-04-23T07:10:10.159Z,77.25
2023-04-23T07:12:38.428Z,77.44
2023-04-23T07:15:07.719Z,79.27
2023-04-23T07:17:36.111Z,79.54
2023-04-23T07:20:06.612Z,79.29
2023-04-23T07:22:34.651Z,80.55
2023-04-23T07:25:04.326Z,81.17
2023-04-23T07:27:32.223Z,81.76
2023-04-23T07:30:01.754Z,82.08
2023-04-23T07:32:29.620Z,81.38
2023-04-23T07:34:57.566Z,82.24
2023-04-23T07:37:27.004Z,81.74
2023-04-23T07:39:54.923Z,82.71
2023-04-23T07:42:22.861Z,82.01
2023-04-23T07:44:50.850Z,82.26
2023-04-23T07:47:18.693Z,80.13
2023-04-23T07:49:46.640Z,81.70
2023-04-23T07:52:15.594Z,80.94
2023-04-23T07:54:46.217Z,82.34
2023-04-23T07:57:14.123Z,81.09
2023-04-23T07:59:42.285Z,81.41
2023-04-23T08:02:10.666Z,82.95
2023-04-23T08:04:38.720Z,81.02
2023-04-23T08:07:06.650Z,81.66
2023-04-23T08:09:34.554Z,82.19
2023-04-23T08:12:03.782Z,81.82
2023-04-23T08:14:31.666Z,82.67
2023-04-23T08:17:01.325Z,81.92
2023-04-23T08:19:32.219Z,81.05
2023-04-23T08:22:00.169Z,80.56
2023-04-23T08:24:28.300Z,80.20
2023-04-23T08:26:56.980Z,80.24
2023-04-23T08:29:26.230Z,79.43
2023-04-23T08:31:54.128Z,78.69
2023-04-23T08:34:22.044Z,80.71
2023-04-23T08:36:49.966Z,79.28
2023-04-23T08:39:17.905Z,79.52
2023-04-23T08:41:55.174Z,78.38
2023-04-23T08:44:25.525Z,80.44
2023-04-23T08:46:55.890Z,77.83
2023-04-23T08:49:24.314Z,72.55
2023-04-23T08:51:54.611Z,77.25
2023-04-23T08:54:27.486Z,77.64
2023-04-23T08:56:57.552Z,77.85
2023-04-23T08:59:26.614Z,75.60
2023-04-23T09:01:56.817Z,78.72
2023-04-23T09:04:25.607Z,79.95
2023-04-23T09:06:53.624Z,80.18
2023-04-23T09:09:23.713Z,79.99
2023-04-23T09:11:53.483Z,81.29
2023-04-23T09:14:25.118Z,81.38
2023-04-23T09:16:54.119Z,80.50
2023-04-23T09:19:25.181Z,81.03
2023-04-23T09:21:53.815Z,80.23
2023-04-23T09:24:23.841Z,80.97
2023-04-23T09:26:52.774Z,80.75
2023-04-23T09:29:23.456Z,82.31
2023-04-23T09:31:52.896Z,81.73
2023-04-23T09:34:22.064Z,80.55
2023-04-23T09:36:52.891Z,80.35
2023-04-23T09:39:23.152Z,80.03
2023-04-23T09:41:52.949Z,79.86
2023-04-23T09:44:22.520Z,81.25
2023-04-23T09:46:50.791Z,81.01
2023-04-23T09:49:18.946Z,81.24
2023-04-23T09:51:48.662Z,79.21
2023-04-23T09:54:19.915Z,77.36
2023-04-23T09:56:51.294Z,77.85
2023-04-23T09:59:32.558Z,78.04
2023-04-23T10:02:09.593Z,77.32
2023-04-23T10:04:37.693Z,78.46
2023-04-23T10:07:18.847Z,77.96
2023-04-23T10:09:49.577Z,79.91
2023-04-23T10:12:36.911Z,80.30
2023-04-23T10:15:08.248Z,79.13
2023-04-23T10:17:36.860Z,79.50
2023-04-23T10:20:06.063Z,78.22
2023-04-23T10:22:35.854Z,77.87
2023-04-23T10:25:09.923Z,75.38
2023-04-23T10:27:51.855Z,77.31
2023-04-23T10:30:23.128Z,75.35
2023-04-23T10:32:51.733Z,75.08
2023-04-23T10:35:19.813Z,73.33
2023-04-23T10:37:48.863Z,76.64
2023-04-23T10:40:30.880Z,74.65
2023-04-23T10:43:00.657Z,73.34
2023-04-23T10:45:31.812Z,71.46
2023-04-23T10:48:00.165Z,71.05
2023-04-23T10:50:29.678Z,68.55
2023-04-23T10:52:59.221Z,71.30
2023-04-23T10:55:30.015Z,68.84
2023-04-23T10:58:03.391Z,69.12
2023-04-23T11:00:45.469Z,67.89
2023-04-23T11:03:32.889Z,65.82
2023-04-23T11:06:03.111Z,66.21
2023-04-23T11:08:32.481Z,64.80
2023-04-23T11:11:03.005Z,65.92
2023-04-23T11:13:31.313Z,65.90
2023-04-23T11:16:16.523Z,67.30
2023-04-23T11:19:03.205Z,64.56
2023-04-23T11:22:00.080Z,66.29
2023-04-23T11:24:37.197Z,65.98
2023-04-23T11:27:09.604Z,68.08
2023-04-23T11:29:38.805Z,65.92
2023-04-23T11:32:10.739Z,67.04
2023-04-23T11:34:40.019Z,68.14
2023-04-23T11:37:11.160Z,68.36
2023-04-23T11:39:40.797Z,68.88
2023-04-23T11:42:13.151Z,67.41
2023-04-23T11:44:42.198Z,65.72
2023-04-23T11:47:12.792Z,66.38
2023-04-23T11:49:42.666Z,63.34
2023-04-23T11:52:11.464Z,61.82
2023-04-23T11:54:41.650Z,61.75
2023-04-23T11:57:10.141Z,60.48
2023-04-23T11:59:39.498Z,58.91
2023-04-23T12:02:07.705Z,58.05
2023-04-23T12:04:36.370Z,58.34
2023-04-23T12:07:15.958Z,56.11
2023-04-23T12:09:51.318Z,54.90
2023-04-23T12:12:19.576Z,56.38
2023-04-23T12:14:48.852Z,56.01
2023-04-23T12:17:16.721Z,56.22
2023-04-23T12:19:45.882Z,54.86
2023-04-23T12:22:13.751Z,56.09
2023-04-23T12:24:51.382Z,55.89
2023-04-23T12:27:22.061Z,52.59
2023-04-23T12:30:00.910Z,52.83
2023-04-23T12:32:28.779Z,51.06
2023-04-23T12:34:57.259Z,51.47
2023-04-23T12:37:26.596Z,52.25
2023-04-23T12:39:56.554Z,50.60
2023-04-23T12:42:24.676Z,51.37
2023-04-23T12:44:55.717Z,53.93
2023-04-23T12:47:24.062Z,50.71
2023-04-23T12:49:53.564Z,48.62
2023-04-23T12:52:22.294Z,49.94
2023-04-23T12:54:52.222Z,50.09
2023-04-23T12:57:23.280Z,51.43
2023-04-23T12:59:54.790Z,49.44
2023-04-23T13:02:23.595Z,49.06
2023-04-23T13:04:51.523Z,48.20
2023-04-23T13:07:19.468Z,47.19
2023-04-23T13:09:47.387Z,45.86
2023-04-23T13:12:15.336Z,44.95
2023-04-23T13:14:43.185Z,48.05
2023-04-23T13:17:12.497Z,46.37
2023-04-23T13:19:40.606Z,46.63
2023-04-23T13:22:08.669Z,48.19
2023-04-23T13:24:36.547Z,43.34
2023-04-23T13:27:04.583Z,44.85
2023-04-23T13:29:32.429Z,43.19
2023-04-23T13:32:00.622Z,45.94
2023-04-23T13:34:30.833Z,46.16
2023-04-23T13:36:59.293Z,45.07
2023-04-23T13:39:27.439Z,45.46
2023-04-23T13:42:09.022Z,44.67
2023-04-23T13:44:37.629Z,43.76
2023-04-23T13:47:05.650Z,45.07
2023-04-23T13:49:34.942Z,43.51
2023-04-23T13:52:06.664Z,43.66
2023-04-23T13:54:35.581Z,43.20
2023-04-23T13:57:03.665Z,45.60
2023-04-23T13:59:31.574Z,43.46
2023-04-23T14:01:59.443Z,43.14
2023-04-23T14:04:27.398Z,44.18
2023-04-23T14:06:56.751Z,43.94
2023-04-23T14:09:25.182Z,44.40
2023-04-23T14:11:53.239Z,44.26
2023-04-23T14:14:21.135Z,44.66
2023-04-23T14:16:49.001Z,44.17
2023-04-23T14:19:17.429Z,43.07
2023-04-23T14:21:46.520Z,43.30
2023-04-23T14:24:24.223Z,42.50
2023-04-23T14:26:52.247Z,43.77
2023-04-23T14:29:25.352Z,43.73
2023-04-23T14:31:53.390Z,43.75
2023-04-23T14:34:21.382Z,43.87
2023-04-23T14:36:49.919Z,43.54
2023-04-23T14:39:19.149Z,44.26
2023-04-23T14:41:47.160Z,43.12
2023-04-23T14:44:15.226Z,42.38
2023-04-23T14:46:43.124Z,43.59
2023-04-23T14:49:11.540Z,42.92
2023-04-23T14:51:39.528Z,41.10
2023-04-23T14:54:07.430Z,40.64
2023-04-23T14:56:37.248Z,43.02
2023-04-23T14:59:05.801Z,41.88
2023-04-23T15:01:33.770Z,42.80
2023-04-23T15:04:02.129Z,41.75
2023-04-23T15:06:30.144Z,41.97
2023-04-23T15:08:58.078Z,43.70
2023-04-23T15:11:26.273Z,41.76
2023-04-23T15:14:04.355Z,41.18
2023-04-23T15:19:07.053Z,41.17
2023-04-23T15:21:35.314Z,41.69
2023-04-23T15:24:03.231Z,41.95
2023-04-23T15:26:32.656Z,42.38
2023-04-23T15:29:03.089Z,41.74
2023-04-23T15:31:31.184Z,43.17
2023-04-23T15:33:59.070Z,42.34
2023-04-23T15:36:26.958Z,41.88
2023-04-23T15:38:54.810Z,43.00
2023-04-23T15:41:22.966Z,43.29
2023-04-23T15:43:53.204Z,45.64
2023-04-23T15:46:22.450Z,43.46
2023-04-23T15:48:50.315Z,43.50
2023-04-23T15:51:18.255Z,42.55
2023-04-23T15:53:46.133Z,41.22
2023-04-23T15:56:14.002Z,41.79
2023-04-23T15:58:41.831Z,40.26
2023-04-23T16:01:09.922Z,41.20
2023-04-23T16:03:39.415Z,40.00
2023-04-23T16:06:07.528Z,40.28
2023-04-23T16:08:35.440Z,41.47
2023-04-23T16:11:04.720Z,41.23
2023-04-23T16:13:32.646Z,40.48
2023-04-23T16:16:00.520Z,40.43
2023-04-23T16:18:28.407Z,40.77
2023-04-23T16:20:58.742Z,40.58
2023-04-23T16:23:26.727Z,40.58
2023-04-23T16:25:56.676Z,40.15
2023-04-23T16:28:24.704Z,41.84
2023-04-23T16:30:52.557Z,41.13
2023-04-23T16:33:20.453Z,42.97
2023-04-23T16:35:48.747Z,43.01
2023-04-23T16:38:17.945Z,41.99
2023-04-23T16:40:47.251Z,40.83
2023-04-23T16:43:15.206Z,42.25
2023-04-23T16:45:43.232Z,41.51
2023-04-23T16:48:12.978Z,44.86
2023-04-23T16:50:42.780Z,42.46
2023-04-23T16:53:10.881Z,41.59
2023-04-23T16:55:40.104Z,43.83
2023-04-23T16:58:07.970Z,42.28
2023-04-23T17:00:35.803Z,43.49
2023-04-23T17:03:04.140Z,42.88
2023-04-23T17:05:35.200Z,42.15
2023-04-23T17:08:03.172Z,44.22
2023-04-23T17:10:31.109Z,43.15
2023-04-23T17:13:00.352Z,45.85
2023-04-23T17:15:28.208Z,44.61
2023-04-23T17:17:56.162Z,43.06
2023-04-23T17:20:24.049Z,45.37
2023-04-23T17:22:52.023Z,45.10
2023-04-23T17:25:19.931Z,44.19
2023-04-23T17:27:47.759Z,44.21
2023-04-23T17:30:17.139Z,43.98
2023-04-23T17:32:45.368Z,41.36
2023-04-23T17:35:13.247Z,47.84
2023-04-23T17:37:41.147Z,46.90
2023-04-23T17:40:10.801Z,46.49
2023-04-23T17:42:38.717Z,43.24
2023-04-23T17:45:07.582Z,48.90
2023-04-23T17:47:37.538Z,48.11
2023-04-23T17:50:06.310Z,47.66
2023-04-23T17:52:34.310Z,50.49
2023-04-23T17:55:02.162Z,46.98
2023-04-23T17:57:30.030Z,47.74
2023-04-23T17:59:59.608Z,45.18
2023-04-23T18:02:27.641Z,48.96
2023-04-23T18:04:59.297Z,49.68
2023-04-23T18:07:27.225Z,45.52
2023-04-23T18:09:55.055Z,44.95
2023-04-23T18:12:22.997Z,46.88
2023-04-23T18:14:50.952Z,48.17
2023-04-23T18:17:18.828Z,45.78
2023-04-23T18:19:46.687Z,45.65
2023-04-23T18:22:16.544Z,46.15
2023-04-23T18:24:45.390Z,47.84
2023-04-23T18:27:13.234Z,46.82
2023-04-23T18:29:41.591Z,47.39
2023-04-23T18:32:10.958Z,48.63
2023-04-23T18:34:40.507Z,49.35
2023-04-23T18:37:11.486Z,50.52
2023-04-23T18:39:41.560Z,49.86
2023-04-23T18:42:09.413Z,53.16
2023-04-23T18:44:37.236Z,52.67
2023-04-23T18:47:05.142Z,52.68
2023-04-23T18:49:40.867Z,51.86
2023-04-23T18:52:09.061Z,53.14
2023-04-23T18:54:36.926Z,52.79
2023-04-23T18:57:06.175Z,55.37
2023-04-23T18:59:37.166Z,56.15
2023-04-23T19:02:05.886Z,56.35
2023-04-23T19:04:34.235Z,56.96
2023-04-23T19:07:02.228Z,55.93
2023-04-23T19:09:30.183Z,56.19
2023-04-23T19:11:58.641Z,58.24
2023-04-23T19:14:28.129Z,57.03
2023-04-23T19:16:56.456Z,58.37
2023-04-23T19:19:24.466Z,58.58
2023-04-23T19:21:52.327Z,59.36
2023-04-23T19:24:20.201Z,58.41
2023-04-23T19:26:48.096Z,57.81
2023-04-23T19:29:16.004Z,59.60
2023-04-23T19:31:45.327Z,57.85
2023-04-23T19:34:16.420Z,60.48
2023-04-23T19:36:44.270Z,59.24
2023-04-23T19:39:12.156Z,60.33
2023-04-23T19:41:40.053Z,60.71
2023-04-23T19:44:08.056Z,59.83
2023-04-23T19:46:35.955Z,60.38
2023-04-23T19:49:05.183Z,59.38
2023-04-23T19:51:35.569Z,61.83
2023-04-23T19:54:03.504Z,59.09
2023-04-23T19:56:31.384Z,60.82
2023-04-23T19:58:59.242Z,61.51
2023-04-23T20:01:28.194Z,60.10
2023-04-23T20:03:56.659Z,59.28
2023-04-23T20:06:26.433Z,59.55
2023-04-23T20:09:07.190Z,60.13
2023-04-23T20:11:35.860Z,60.52
2023-04-23T20:14:03.795Z,61.37
2023-04-23T20:16:31.761Z,61.87
2023-04-23T20:18:59.770Z,61.01
2023-04-23T20:21:29.034Z,61.09
2023-04-23T20:23:56.861Z,59.44
2023-04-23T20:26:24.921Z,59.64
2023-04-23T20:28:52.916Z,59.88
2023-04-23T20:31:21.994Z,60.20
2023-04-23T20:33:49.908Z,60.16
2023-04-23T20:36:17.903Z,59.84
2023-04-23T20:38:47.405Z,59.05
2023-04-23T20:41:15.421Z,61.52
2023-04-23T20:43:45.036Z,59.56
2023-04-23T20:46:13.074Z,61.84
2023-04-23T20:48:43.324Z,60.75
2023-04-23T20:51:11.311Z,59.44
2023-04-23T20:53:39.284Z,60.99
2023-04-23T20:56:08.536Z,60.24
2023-04-23T20:58:36.422Z,59.65
2023-04-23T21:01:07.427Z,59.26
2023-04-23T21:03:37.012Z,58.79
2023-04-23T21:06:05.788Z,58.31
2023-04-23T21:08:33.747Z,57.94
2023-04-23T21:11:02.642Z,58.83
2023-04-23T21:13:31.941Z,58.08
2023-04-23T21:15:59.819Z,57.44
2023-04-23T21:18:27.725Z,57.82
2023-04-23T21:20:55.660Z,57.73
2023-04-23T21:23:23.494Z,58.02
2023-04-23T21:25:51.878Z,57.99
2023-04-23T21:28:20.032Z,57.92
2023-04-23T21:30:51.203Z,57.93
2023-04-23T21:33:20.522Z,57.72
2023-04-23T21:35:49.686Z,57.92
2023-04-23T21:38:17.937Z,58.37
2023-04-23T21:40:46.281Z,58.02
2023-04-23T21:43:15.951Z,58.25
2023-04-23T21:45:43.871Z,58.26
2023-04-23T21:48:13.169Z,57.85
2023-04-23T21:50:41.101Z,57.67
2023-04-23T21:53:08.944Z,58.51
2023-04-23T21:55:36.864Z,57.72
2023-04-23T21:58:16.556Z,57.61
2023-04-23T22:00:46.286Z,57.61
2023-04-23T22:03:17.179Z,58.42
2023-04-23T22:05:54.787Z,59.51
2023-04-23T22:08:23.271Z,58.26
2023-04-23T22:10:51.170Z,58.71
2023-04-23T22:13:20.346Z,58.85
2023-04-23T22:15:49.585Z,59.55
2023-04-23T22:18:18.827Z,60.19
2023-04-23T22:20:49.373Z,60.21
2023-04-23T22:23:17.473Z,60.96
2023-04-23T22:25:45.831Z,61.28
2023-04-23T22:28:13.677Z,60.93
2023-04-23T22:30:41.533Z,61.70
2023-04-23T22:33:09.431Z,62.74
2023-04-23T22:35:38.826Z,61.93
2023-04-23T22:38:06.807Z,61.96
2023-04-23T22:40:34.801Z,62.08
2023-04-23T22:43:02.635Z,62.38
2023-04-23T22:45:30.861Z,62.30
2023-04-23T22:47:59.240Z,62.06
2023-04-23T22:50:28.945Z,62.22
2023-04-23T22:52:58.230Z,62.86
2023-04-23T22:55:26.253Z,63.56
2023-04-23T22:57:54.352Z,63.51
2023-04-23T23:00:22.296Z,64.59
2023-04-23T23:02:50.343Z,63.96
2023-04-23T23:05:18.589Z,64.02
2023-04-23T23:07:46.510Z,64.02
2023-04-23T23:10:16.021Z,64.19
2023-04-23T23:12:43.908Z,64.34
2023-04-23T23:15:12.746Z,64.48
2023-04-23T23:17:41.240Z,64.53
2023-04-23T23:20:09.994Z,64.68
2023-04-23T23:22:37.887Z,64.56
2023-04-23T23:25:06.962Z,65.15
2023-04-23T23:27:36.366Z,65.32
2023-04-23T23:30:05.895Z,65.16
2023-04-23T23:32:33.876Z,65.66
2023-04-23T23:35:01.995Z,65.74
2023-04-23T23:37:30.534Z,65.94
2023-04-23T23:39:58.479Z,65.90
2023-04-23T23:42:26.564Z,66.48
2023-04-23T23:44:55.791Z,66.80
2023-04-23T23:47:23.915Z,66.83
2023-04-23T23:49:52.028Z,66.62
2023-04-23T23:52:19.957Z,66.78
2023-04-23T23:54:47.847Z,67.39
2023-04-23T23:57:15.789Z,67.28
2023-04-23T23:59:43.963Z,67.20
